Rain radar more information rain snow radar


Visit our other weather sites:

Template documentation
and downloads

And another site



Nearby METAR Reports

   
KTIW - Tacoma, Washington, USA
Distance from station: W 7 mi
Updated: Apr 7 2020 5:53 pm
Partly Cloudy  
Partly Cloudy  
   Wind: ENE 3.5 mph
Wind: ENE 3.5 mph
Temperature: 51.8°F
Dew Point: 37.4°F
Humidity: 58%
Barometer: 30.25 inHg
Clouds: Partly Cloudy
Visibility: 10 mi
Cloud details: Partly Cloudy 1981 m
KTIW 080053Z 06003KT 10SM SCT065 11/03 A3025 RMK AO2 SLP245 T01110028
KTCM - Tacoma/Mc Chord, Washington, USA
Distance from station: S 9 mi
Updated: Apr 7 2020 5:58 pm
Clear  
Clear  
   Wind: Calm
Wind: Calm
Temperature: 55.4°F
Dew Point: 35.6°F
Humidity: 47%
Barometer: 30.24 inHg
Clouds: Clear
Visibility: 10 mi
Cloud details: Clear m
KTCM 080058Z AUTO 00000KT 10SM CLR 13/02 A3024 RMK AO2 SLP246 T01270017 $
KSEA - Seattle/Metro, Washington, USA
Distance from station: NNE 15 mi
Updated: Apr 7 2020 5:53 pm
Few Clouds  
Few Clouds  
   Wind: West 5.8 mph
Wind: West 5.8 mph
Temperature: 55.4°F
Dew Point: 37.4°F
Humidity: 51%
Barometer: 30.24 inHg
Clouds: Few Clouds
Visibility: 10 mi
Cloud details: Few Clouds 7620 m
KSEA 080053Z 26005KT 10SM FEW250 13/03 A3024 RMK AO2 SLP247 T01280028
KBFI - Seattle/Boeing, Washington, USA
Distance from station: NNE 21 mi
Updated: Apr 7 2020 5:53 pm
Clear  
Clear  
   Wind: NNW 4.6 mph
Wind: NNW 4.6 mph
Temperature: 55.4°F
Dew Point: 35.6°F
Humidity: 47%
Barometer: 30.24 inHg
Clouds: Clear
Visibility: 10 mi
Cloud details: Clear m
KBFI 080053Z 33004KT 10SM CLR 13/02 A3024 RMK AO2 SLP240 T01330017
KOLM - Olympia, Washington, USA
Distance from station: SW 29 mi
Updated: Apr 7 2020 5:54 pm
Clear  
Clear  
   Wind: NE 4.6 mph
Wind: NE 4.6 mph
Temperature: 57.2°F
Dew Point: 39.2°F
Humidity: 51%
Barometer: 30.23 inHg
Clouds: Clear
Visibility: 10 mi
Cloud details: Clear m
KOLM 080054Z 04004KT 10SM CLR 14/04 A3023 RMK AO2 SLP238 T01390039
 

Script developed by  Saratoga-weather.org Adapted for the template by  Weerstation Leuven

You find our weather info also at:

Weather Underground

WeatherlinkIP

Citizen Weather Observer Program (CWOP)

Equipment we use:

Weather-station
Davis VP2

Weather-program
Meteobridge

Provider
MDD Hosting

Davis VP2

Meteobridge

MDD Hosting